»·PEaware :: N191TB KGEG-KHQM

N191TB :: KGEG-KHQM

FLIGHT INFORMATION

Flight Status: Arrived
Operator: Privately registered:
United States
More flights under this callsign
Pilot: Tim F. (26756)
Aircraft: SOCATA TBM-900
(TBM9)
More flights by this aircraft type
Origin: KGEG Spokane Intl
United States
Destination: KHQM Bowerman
United States
More flights between these airports :: More routes between these airports
Route:
File this flight plan on PilotEdge
Remarks:
Altitude:
(Current/Filed)
12,500ft
Speed:
(Current/Filed)
250kts
Departed: 08-May-20 09:21 PM
Arrived: 08-May-20 10:41 PM
Distance/Time
Traveled:
263nm/1:19
Distance/Time
To Go:
Arrived

Flight Plot

Page will automatically refresh every two minutes.

Flight plan parsing failed; only flown route is shown


Map Options




Map Legend


Flown Route
Filed Route
Departure Airport
Arrival Airport
Navaid (VOR, NDB)
Fix

Horizontal Profiles

Position Reports

Time Latitude Longitude Heading Altitude Ground
Speed
08-May-20 20:58 47.620580 -117.528138 356 2361ft 0kts
08-May-20 20:59 47.620580 -117.528138 356 2361ft 0kts
08-May-20 21:00 47.620581 -117.528138 356 2361ft 0kts
08-May-20 21:01 47.620581 -117.528138 356 2361ft 0kts
08-May-20 21:02 47.620581 -117.528138 356 2361ft 0kts
08-May-20 21:03 47.620581 -117.528138 356 2361ft 0kts
08-May-20 21:04 47.620581 -117.528138 356 2361ft 0kts
08-May-20 21:05 47.620581 -117.528138 356 2361ft 0kts
08-May-20 21:06 47.620581 -117.528138 356 2361ft 0kts
08-May-20 21:07 47.620581 -117.528138 356 2361ft 0kts
08-May-20 21:08 47.620581 -117.528138 356 2361ft 0kts
08-May-20 21:09 47.620580 -117.528138 356 2361ft 0kts
08-May-20 21:10 47.620580 -117.528138 356 2361ft 0kts
08-May-20 21:11 47.620580 -117.528138 356 2361ft 0kts
08-May-20 21:12 47.620580 -117.528138 356 2361ft 0kts
08-May-20 21:13 47.620580 -117.528138 356 2361ft 0kts
08-May-20 21:14 47.619608 -117.529336 179 2365ft 16kts
08-May-20 21:15 47.617910 -117.528072 90 2370ft 14kts
08-May-20 21:16 47.617913 -117.521443 91 2372ft 0kts
08-May-20 21:17 47.617913 -117.521443 91 2372ft 0kts
08-May-20 21:18 47.617785 -117.520382 131 2373ft 1kts
08-May-20 21:19 47.617509 -117.520182 170 2374ft 6kts
08-May-20 21:20 47.617336 -117.549540 275 2667ft 143kts
08-May-20 21:21 47.626223 -117.607851 283 5040ft 144kts
08-May-20 21:22 47.640255 -117.668929 290 7254ft 156kts
08-May-20 21:23 47.668744 -117.733211 291 7543ft 245kts
08-May-20 21:24 47.637667 -117.814031 232 7601ft 244kts
08-May-20 21:25 47.597173 -117.895846 234 7781ft 245kts
08-May-20 21:26 47.585084 -117.995121 262 8076ft 238kts
08-May-20 21:27 47.577706 -118.091813 262 8060ft 234kts
08-May-20 21:28 47.570384 -118.186743 262 8362ft 223kts
08-May-20 21:29 47.563662 -118.273010 262 9440ft 201kts
08-May-20 21:30 47.557348 -118.353246 262 10545ft 191kts
08-May-20 21:31 47.551186 -118.430864 262 11687ft 187kts
08-May-20 21:32 47.544814 -118.510345 262 12648ft 208kts
08-May-20 21:33 47.537249 -118.603811 262 12623ft 239kts
08-May-20 21:34 47.529181 -118.702491 261 12604ft 246kts
08-May-20 21:35 47.520852 -118.803322 261 12602ft 246kts
08-May-20 21:36 47.512243 -118.906391 261 12607ft 258kts
08-May-20 21:37 47.503291 -119.012351 261 12598ft 258kts
08-May-20 21:38 47.494234 -119.118382 261 12599ft 259kts
08-May-20 21:39 47.485098 -119.224172 261 12602ft 259kts
08-May-20 21:41 47.475876 -119.329774 261 12600ft 257kts
08-May-20 21:42 47.466597 -119.434884 261 12597ft 258kts
08-May-20 21:43 47.457193 -119.540296 261 12599ft 258kts
08-May-20 21:44 47.447699 -119.645571 261 12596ft 258kts
08-May-20 21:45 47.438012 -119.751882 260 12600ft 258kts
08-May-20 21:46 47.428327 -119.857079 260 12595ft 257kts
08-May-20 21:47 47.418490 -119.962803 260 12598ft 260kts
08-May-20 21:48 47.408530 -120.068778 260 12598ft 258kts
08-May-20 21:49 47.398508 -120.174340 260 12601ft 258kts
08-May-20 21:50 47.388380 -120.279956 260 12601ft 259kts
08-May-20 21:51 47.378142 -120.385667 260 12599ft 258kts
08-May-20 21:52 47.367792 -120.491500 260 12600ft 259kts
08-May-20 21:53 47.357337 -120.597358 260 12598ft 259kts
08-May-20 21:54 47.347496 -120.696059 260 12598ft 258kts
08-May-20 21:55 47.337279 -120.797622 260 12597ft 259kts
08-May-20 21:56 47.326732 -120.901492 260 12600ft 257kts
08-May-20 21:56 47.317774 -120.988965 260 12601ft 256kts
08-May-20 21:58 47.305100 -121.111584 260 12597ft 257kts
08-May-20 21:58 47.295960 -121.199212 260 12600ft 258kts
08-May-20 21:59 47.284940 -121.303947 260 12597ft 258kts
08-May-20 22:01 47.271974 -121.426008 260 12600ft 259kts
08-May-20 22:01 47.262642 -121.513083 260 12599ft 258kts
08-May-20 22:02 47.251266 -121.618362 260 12601ft 260kts
08-May-20 22:03 47.240005 -121.721635 259 12598ft 258kts
08-May-20 22:04 47.228493 -121.826327 259 12601ft 258kts
08-May-20 22:05 47.216865 -121.931149 259 12594ft 258kts
08-May-20 22:06 47.205208 -122.035339 259 12598ft 257kts
08-May-20 22:07 47.193464 -122.139413 259 12600ft 257kts
08-May-20 22:08 47.181504 -122.244499 259 12598ft 258kts
08-May-20 22:09 47.169511 -122.349001 259 12599ft 259kts
08-May-20 22:10 47.157370 -122.453925 259 12585ft 259kts
08-May-20 22:11 47.144233 -122.566427 259 10939ft 291kts
08-May-20 22:12 47.130450 -122.683499 258 9124ft 293kts
08-May-20 22:13 47.116887 -122.797575 258 7649ft 271kts
08-May-20 22:14 47.118238 -122.904440 231 6556ft 249kts
08-May-20 22:15 47.093798 -122.995541 256 6624ft 238kts
08-May-20 22:16 47.048386 -123.006718 110 6599ft 237kts
08-May-20 22:17 47.077690 -122.920845 55 6643ft 249kts
08-May-20 22:18 47.102108 -122.832843 81 5311ft 227kts
08-May-20 22:19 47.107960 -122.762891 84 4486ft 118kts
08-May-20 22:20 47.111166 -122.715476 85 4588ft 134kts
08-May-20 22:21 47.115099 -122.655709 85 4614ft 154kts
08-May-20 22:22 47.119300 -122.591659 85 4598ft 155kts
08-May-20 22:23 47.146852 -122.570043 302 4572ft 166kts
08-May-20 22:24 47.131161 -122.628727 243 4603ft 164kts
08-May-20 22:25 47.118536 -122.694219 257 4602ft 167kts
08-May-20 22:26 47.110165 -122.763035 259 4632ft 181kts
08-May-20 22:27 47.101605 -122.838914 259 4599ft 190kts
08-May-20 22:28 47.092991 -122.915580 259 4588ft 180kts
08-May-20 22:29 47.085039 -122.985980 259 4597ft 169kts
08-May-20 22:30 47.077544 -123.051959 259 4595ft 160kts
08-May-20 22:31 47.067278 -123.141785 259 4599ft 158kts
08-May-20 22:32 47.055404 -123.244886 259 4594ft 160kts
08-May-20 22:33 47.041437 -123.365137 259 4819ft 201kts
08-May-20 22:34 47.025616 -123.499892 259 4836ft 204kts
08-May-20 22:35 47.010907 -123.623932 259 4659ft 164kts
08-May-20 22:36 46.999408 -123.720088 258 4468ft 161kts
08-May-20 22:37 46.989917 -123.794619 256 2675ft 162kts
08-May-20 22:38 46.980786 -123.859303 260 1238ft 156kts
08-May-20 22:39 46.973995 -123.913600 260 172ft 112kts
08-May-20 22:40 46.970320 -123.946530 342 19ft 20kts
08-May-20 22:41 46.972216 -123.936825 78 17ft 26kts
08-May-20 22:42 46.973541 -123.927985 52 17ft 15kts
08-May-20 22:43 46.973459 -123.929513 80 17ft 0kts
08-May-20 22:44 46.973458 -123.929513 81 17ft 0kts
08-May-20 22:45 46.973458 -123.929513 81 17ft 0kts
08-May-20 22:46 46.973458 -123.929513 81 17ft 0kts
08-May-20 22:47 46.973458 -123.929513 81 17ft 0kts
08-May-20 22:48 46.973458 -123.929513 81 17ft 0kts
08-May-20 22:49 46.973458 -123.929513 81 17ft 0kts
08-May-20 22:50 46.973458 -123.929513 81 17ft 0kts
08-May-20 22:51 46.973458 -123.929513 81 17ft 0kts
08-May-20 22:52 46.973458 -123.929513 81 17ft 0kts
08-May-20 22:53 46.973458 -123.929513 81 17ft 0kts
08-May-20 22:54 46.973458 -123.929513 81 17ft 0kts

Navigation Log

Ident Type
Flight plan parsing failed, navigation log unavailable